createdAt,value
2023-04-16T00:04:35.161Z,59.6
2023-04-16T00:08:39.287Z,66.8
2023-04-16T00:10:41.371Z,48.7
2023-04-16T00:12:43.455Z,47.5
2023-04-16T00:18:53.025Z,55.1
2023-04-16T00:20:55.125Z,64.4
2023-04-16T00:22:57.215Z,53.6
2023-04-16T00:27:01.497Z,43.9
2023-04-16T00:29:03.496Z,47.5
2023-04-16T00:33:10.997Z,55.8
2023-04-16T00:37:15.165Z,59.6
2023-04-16T00:38:17.819Z,45.4
2023-04-16T00:40:19.905Z,59.7
2023-04-16T00:48:31.551Z,63.1
2023-04-16T00:52:35.800Z,49.8
2023-04-16T00:54:37.852Z,69.4
2023-04-16T00:56:39.982Z,53.5
2023-04-16T00:58:42.091Z,55.4
2023-04-16T01:00:47.417Z,57.4
2023-04-16T01:02:49.750Z,55.6
2023-04-16T01:04:51.653Z,69.7
2023-04-16T01:08:55.887Z,47.7
2023-04-16T01:10:57.964Z,62.9
2023-04-16T01:17:09.070Z,51.2
2023-04-16T01:19:11.312Z,61.8
2023-04-16T01:21:13.256Z,64.1
2023-04-16T01:23:15.336Z,72
2023-04-16T01:25:17.440Z,70.3
2023-04-16T01:27:19.550Z,67.9
2023-04-16T01:31:27.910Z,71.6
2023-04-16T01:33:29.081Z,67.4
2023-04-16T01:34:31.759Z,76.1
2023-04-16T01:38:35.962Z,79.8
2023-04-16T01:40:38.073Z,78.8
2023-04-16T01:42:43.394Z,67
2023-04-16T01:44:45.493Z,70
2023-04-16T01:46:47.671Z,85.7
2023-04-16T01:48:49.712Z,85.7
2023-04-16T02:01:05.600Z,102.5
2023-04-16T02:05:09.760Z,73.6
2023-04-16T02:07:11.863Z,67.3
2023-04-16T02:09:13.975Z,87.6
2023-04-16T02:13:21.393Z,91.7
2023-04-16T02:15:23.522Z,98.8
2023-04-16T02:19:27.718Z,84.9
2023-04-16T02:21:29.810Z,86.2
2023-04-16T02:23:31.902Z,75.8
2023-04-16T02:25:38.190Z,84
2023-04-16T02:27:39.344Z,86.1
2023-04-16T02:29:41.434Z,68.7
2023-04-16T02:30:44.091Z,94.2
2023-04-16T02:57:17.881Z,115
2023-04-16T02:59:19.976Z,105.3
2023-04-16T03:01:22.189Z,87.4
2023-04-16T03:03:24.195Z,102.7
2023-04-16T03:15:39.997Z,103.9
2023-04-16T03:19:44.209Z,93.8
2023-04-16T03:21:49.556Z,110.4
2023-04-16T03:25:53.733Z,102.6
2023-04-16T03:28:22.573Z,95.9
2023-04-16T03:30:24.669Z,84.4
2023-04-16T03:32:26.889Z,99.3
2023-04-16T03:34:32.110Z,88
2023-04-16T03:36:34.199Z,97.9
2023-04-16T03:38:36.318Z,93.4
2023-04-16T03:40:38.416Z,87.4
2023-04-16T03:42:40.536Z,92.4
2023-04-16T03:44:42.629Z,86.7
2023-04-16T03:46:44.781Z,88.6
2023-04-16T03:48:50.059Z,99.6
2023-04-16T03:50:52.157Z,100.4
2023-04-16T03:52:54.262Z,88.5
2023-04-16T03:54:56.427Z,93.4
2023-04-16T03:56:58.474Z,106.8
2023-04-16T03:59:00.570Z,91.3
2023-04-16T04:01:02.683Z,83.4
2023-04-16T04:03:08.236Z,105.8
2023-04-16T04:05:10.278Z,81.1
2023-04-16T04:07:12.230Z,122.2
2023-04-16T04:09:14.305Z,100.2
2023-04-16T04:11:16.401Z,115.1
2023-04-16T04:13:18.509Z,80.8
2023-04-16T04:15:20.593Z,106.7
2023-04-16T04:17:26.009Z,124.4
2023-04-16T04:19:28.049Z,116.2
2023-04-16T04:22:32.792Z,109.2
2023-04-16T04:24:34.921Z,100.8
2023-04-16T04:26:37.042Z,127.5
2023-04-16T04:28:39.134Z,104.4
2023-04-16T04:30:44.953Z,116.6
2023-04-16T04:32:46.582Z,113.5
2023-04-16T04:34:48.636Z,90.4
2023-04-16T04:36:50.756Z,134.8
2023-04-16T04:38:52.827Z,99.2
2023-04-16T04:40:54.945Z,114.9
2023-04-16T04:42:57.067Z,82.3
2023-04-16T04:47:04.485Z,103.9
2023-04-16T04:49:06.609Z,90.5
2023-04-16T04:51:08.695Z,89.9
2023-04-16T04:53:10.794Z,114.2
2023-04-16T04:55:12.894Z,91.6
2023-04-16T04:57:15.000Z,80.7
2023-04-16T04:59:20.364Z,100.4
2023-04-16T05:01:22.513Z,89.7
2023-04-16T05:03:24.640Z,87.8
2023-04-16T05:13:38.311Z,109.6
2023-04-16T05:17:42.536Z,103.4
2023-04-16T05:18:45.169Z,116
2023-04-16T05:22:49.385Z,94.7
2023-04-16T05:24:51.503Z,92.6
2023-04-16T05:28:58.936Z,90.3
2023-04-16T05:31:01.110Z,105.4
2023-04-16T05:39:09.665Z,77.5
2023-04-16T05:41:14.759Z,119
2023-04-16T05:43:16.862Z,74.2
2023-04-16T05:45:18.965Z,75.7
2023-04-16T05:53:27.362Z,70.1
2023-04-16T05:55:32.751Z,91.2
2023-04-16T05:57:34.808Z,113.7
2023-04-16T06:03:41.197Z,82.8
2023-04-16T06:05:43.329Z,85.8
2023-04-16T06:07:45.326Z,99.2
2023-04-16T06:09:50.685Z,94.6
2023-04-16T06:11:52.783Z,72.2
2023-04-16T06:31:17.646Z,87.1
2023-04-16T06:41:31.394Z,85.1
2023-04-16T06:43:33.508Z,79.1
2023-04-16T06:45:35.819Z,102.4
2023-04-16T06:53:47.273Z,91.8
2023-04-16T06:55:49.343Z,103.6
2023-04-16T06:57:51.491Z,82.7
2023-04-16T07:03:57.987Z,98.2
2023-04-16T07:06:03.147Z,93.8
2023-04-16T07:08:05.262Z,100.6
2023-04-16T07:10:08.919Z,95.8
2023-04-16T07:14:39.729Z,90
2023-04-16T07:22:51.422Z,88.1
2023-04-16T07:26:55.649Z,84.2
2023-04-16T07:28:57.759Z,93.5
2023-04-16T07:30:59.854Z,87.6
2023-04-16T07:43:15.597Z,66.2
2023-04-16T07:45:17.688Z,99.7
2023-04-16T07:53:29.386Z,99.2
2023-04-16T07:57:33.612Z,112.6
2023-04-16T07:59:35.739Z,98.1
2023-04-16T08:05:45.321Z,85.8
2023-04-16T08:06:48.017Z,106.8
2023-04-16T08:08:50.100Z,110.1
2023-04-16T08:10:52.507Z,89.7
2023-04-16T08:12:54.362Z,117.1
2023-04-16T08:17:01.801Z,93.8
2023-04-16T08:21:05.949Z,80.7
2023-04-16T08:23:08.066Z,103.8
2023-04-16T08:31:19.870Z,81.7
2023-04-16T08:33:21.908Z,76.9
2023-04-16T08:39:28.299Z,93.2
2023-04-16T08:41:30.399Z,84.4
2023-04-16T08:43:35.655Z,90.9
2023-04-16T08:45:37.800Z,75.5
2023-04-16T08:47:39.870Z,83.8
2023-04-16T08:49:41.957Z,74.2
2023-04-16T08:51:44.098Z,75.7
2023-04-16T08:55:48.284Z,94.2
2023-04-16T08:59:55.772Z,62.5
2023-04-16T09:05:02.776Z,78.9
2023-04-16T09:07:04.850Z,70.6
2023-04-16T09:11:12.154Z,70.2
2023-04-16T09:13:14.314Z,60.4
2023-04-16T09:15:16.344Z,75.2
2023-04-16T09:19:20.604Z,65.2
2023-04-16T09:23:24.893Z,72.5
2023-04-16T09:39:47.935Z,49.2
2023-04-16T09:41:50.061Z,53.2
2023-04-16T09:43:52.230Z,60
2023-04-16T09:56:07.782Z,63
2023-04-16T10:05:18.653Z,44.5
2023-04-16T10:07:23.837Z,70.5
2023-04-16T10:11:27.975Z,56
2023-04-16T10:13:30.027Z,51.4
2023-04-16T10:15:32.102Z,48.5
2023-04-16T10:21:41.425Z,57.2
2023-04-16T10:23:43.499Z,44.6
2023-04-16T10:25:45.598Z,47.8
2023-04-16T10:29:49.797Z,54.8
2023-04-16T10:36:07.292Z,66
2023-04-16T10:44:07.403Z,71.5
2023-04-16T10:46:09.542Z,66.9
2023-04-16T10:50:16.811Z,86.2
2023-04-16T10:52:18.860Z,175.9
2023-04-16T10:54:20.933Z,77.7
2023-04-16T10:56:49.718Z,191.6
2023-04-16T10:58:51.626Z,137.8
2023-04-16T11:07:03.073Z,52.1
2023-04-16T11:09:05.142Z,46.6
2023-04-16T11:11:07.321Z,34.2
2023-04-16T11:13:09.314Z,39.1
2023-04-16T11:15:11.400Z,58.5
2023-04-16T11:19:18.720Z,41.4
2023-04-16T11:21:20.779Z,52.9
2023-04-16T11:23:22.873Z,34.2
2023-04-16T11:25:24.945Z,51.3
2023-04-16T11:27:27.020Z,43
2023-04-16T11:29:29.107Z,55.2
2023-04-16T11:31:34.400Z,40.9
2023-04-16T11:33:36.412Z,44.2
2023-04-16T11:37:40.558Z,37.4
2023-04-16T11:41:44.750Z,48.7
2023-04-16T11:43:46.831Z,37.2
2023-04-16T11:45:52.034Z,44.8
2023-04-16T11:47:54.141Z,34.7
2023-04-16T11:49:56.197Z,33.8
2023-04-16T11:50:58.817Z,42.9
2023-04-16T11:55:02.978Z,34.6
2023-04-16T12:07:18.592Z,42.2
2023-04-16T12:09:20.681Z,50.7
2023-04-16T12:11:22.769Z,41.4
2023-04-16T12:13:28.015Z,40.7
2023-04-16T12:15:30.127Z,49.5
2023-04-16T12:19:34.244Z,71.4
2023-04-16T12:21:36.333Z,58
2023-04-16T12:23:38.425Z,39
2023-04-16T12:25:40.519Z,49.4
2023-04-16T12:27:45.743Z,45.5
2023-04-16T12:29:47.824Z,42.7
2023-04-16T12:33:51.979Z,42.3
2023-04-16T12:35:54.065Z,34.8
2023-04-16T12:37:56.128Z,49.8
2023-04-16T12:44:05.499Z,34.6
2023-04-16T12:47:10.198Z,39.7
2023-04-16T12:49:12.393Z,45.4
2023-04-16T12:51:14.359Z,36.9
2023-04-16T12:53:16.472Z,33.2
2023-04-16T12:55:21.680Z,35
2023-04-16T12:57:23.785Z,27.3
2023-04-16T12:59:25.852Z,46.1
2023-04-16T13:01:29.527Z,39.2
2023-04-16T13:03:31.779Z,41.4
2023-04-16T13:05:33.678Z,40.4
2023-04-16T13:07:35.719Z,35.7
2023-04-16T13:09:40.932Z,34.4
2023-04-16T13:13:45.134Z,41.4
2023-04-16T13:15:47.250Z,42.3
2023-04-16T13:17:49.450Z,42.4
2023-04-16T13:19:51.375Z,37.9
2023-04-16T13:21:53.485Z,39.6
2023-04-16T13:23:58.727Z,42
2023-04-16T13:26:00.789Z,34.9
2023-04-16T13:30:05.032Z,36
2023-04-16T13:32:07.074Z,30.3
2023-04-16T13:34:09.165Z,42.2
2023-04-16T13:36:11.220Z,39.4
2023-04-16T13:38:16.462Z,37.6
2023-04-16T13:42:20.668Z,51.9
2023-04-16T13:43:23.235Z,31.6
2023-04-16T13:45:25.334Z,34.2
2023-04-16T13:47:27.417Z,24.7
2023-04-16T13:49:29.466Z,32.3
2023-04-16T13:51:34.717Z,25.7
2023-04-16T13:53:36.784Z,45.1
2023-04-16T13:55:38.864Z,37.7
2023-04-16T13:57:40.941Z,34.1
2023-04-16T13:59:43.030Z,26.4
2023-04-16T14:01:45.107Z,40.6
2023-04-16T14:03:47.228Z,37.4
2023-04-16T14:05:52.411Z,27
2023-04-16T14:07:54.466Z,28
2023-04-16T14:09:56.559Z,31
2023-04-16T14:11:58.653Z,35.2
2023-04-16T14:14:00.705Z,34.4
2023-04-16T14:16:02.838Z,35.8
2023-04-16T14:18:04.901Z,31
2023-04-16T14:22:12.199Z,35.1
2023-04-16T14:24:14.246Z,32.5
2023-04-16T14:26:16.335Z,34.5
2023-04-16T14:41:00.721Z,41.5
2023-04-16T15:03:29.769Z,41.1
2023-04-16T15:34:07.119Z,36.3
2023-04-16T15:35:11.338Z,31
2023-04-16T15:37:11.794Z,48.7
2023-04-16T15:39:14.073Z,33.3
2023-04-16T15:41:15.961Z,39.1
2023-04-16T15:43:21.148Z,35.1
2023-04-16T15:45:23.227Z,45.4
2023-04-16T15:47:25.329Z,28.1
2023-04-16T15:49:27.353Z,36.1
2023-04-16T15:53:31.521Z,49.5
2023-04-16T16:09:52.052Z,38.8
2023-04-16T16:16:01.431Z,33.4
2023-04-16T16:18:03.546Z,31.9
2023-04-16T16:20:05.561Z,36.4
2023-04-16T16:22:07.614Z,33
2023-04-16T16:24:09.695Z,30.7
2023-04-16T16:26:14.916Z,37.7
2023-04-16T16:28:16.974Z,35.7
2023-04-16T16:31:21.680Z,39.5
2023-04-16T16:37:27.878Z,42.2
2023-04-16T16:39:33.097Z,32.5
2023-04-16T16:41:35.136Z,41.3
2023-04-16T16:45:39.281Z,42.5
2023-04-16T16:47:41.366Z,35.3
2023-04-16T16:49:43.411Z,35.5
2023-04-16T16:51:45.488Z,36.1
2023-04-16T16:53:50.679Z,35.3
2023-04-16T16:55:52.762Z,33.4
2023-04-16T16:57:54.816Z,40.8
2023-04-16T17:01:58.982Z,32.8
2023-04-16T17:04:01.115Z,60.7
2023-04-16T17:06:03.080Z,40.7
2023-04-16T17:08:08.296Z,39
2023-04-16T17:12:12.393Z,50.1
2023-04-16T17:14:14.475Z,48.7
2023-04-16T17:16:16.625Z,35.6
2023-04-16T17:18:18.668Z,49
2023-04-16T17:20:20.744Z,36
2023-04-16T17:22:25.949Z,42.3
2023-04-16T17:24:28.114Z,35
2023-04-16T17:26:30.180Z,59
2023-04-16T17:29:34.832Z,34.3
2023-04-16T17:31:36.946Z,58
2023-04-16T17:33:38.977Z,33
2023-04-16T17:39:48.393Z,35.6
2023-04-16T17:45:54.836Z,43
2023-04-16T17:47:56.953Z,35.3
2023-04-16T17:50:02.247Z,39.2
2023-04-16T17:52:04.406Z,47.5
2023-04-16T17:54:06.571Z,38.7
2023-04-16T17:56:08.703Z,45.6
2023-04-16T17:58:10.880Z,55.1
2023-04-16T18:00:13.049Z,41.4
2023-04-16T18:04:20.695Z,60.3
2023-04-16T18:06:22.780Z,45.6
2023-04-16T18:08:24.908Z,57.1
2023-04-16T18:12:29.218Z,41.6
2023-04-16T18:14:31.381Z,37.6
2023-04-16T18:16:33.515Z,49
2023-04-16T18:27:14.276Z,48.6
2023-04-16T18:31:21.921Z,42.3
2023-04-16T18:35:26.076Z,294.2
2023-04-16T18:37:28.144Z,217.1
2023-04-16T18:39:30.289Z,113.1
2023-04-16T18:41:32.475Z,99.3
2023-04-16T18:43:34.598Z,76.2
2023-04-16T18:45:40.091Z,49.9
2023-04-16T18:47:42.217Z,65.8
2023-04-16T18:49:44.276Z,151.3
2023-04-16T18:51:46.438Z,99.6
2023-04-16T18:53:50.155Z,70.9
2023-04-16T18:55:52.239Z,59.7
2023-04-16T18:57:54.283Z,43.9
2023-04-16T18:59:59.678Z,57.5
2023-04-16T19:02:01.872Z,59.2
2023-04-16T19:06:05.979Z,57.3
2023-04-16T19:08:08.047Z,46.6
2023-04-16T19:10:10.096Z,46.1
2023-04-16T19:12:12.132Z,120.6
2023-04-16T19:14:17.412Z,52.2
2023-04-16T19:16:19.461Z,42.7
2023-04-16T19:18:21.516Z,90
2023-04-16T19:19:24.222Z,52.4
2023-04-16T19:23:28.499Z,58.2
2023-04-16T19:25:30.701Z,44.4
2023-04-16T19:29:37.980Z,50.2
2023-04-16T19:41:54.024Z,86.4
2023-04-16T19:43:56.193Z,49.9
2023-04-16T19:48:00.408Z,48.2
2023-04-16T19:50:02.452Z,68.6
2023-04-16T19:52:04.564Z,45.4
2023-04-16T19:54:06.719Z,57.2
2023-04-16T19:56:11.988Z,52.8
2023-04-16T19:58:14.046Z,42.1
2023-04-16T20:00:16.176Z,58.6
2023-04-16T20:02:18.324Z,59.4
2023-04-16T20:04:20.455Z,52.3
2023-04-16T20:06:22.573Z,47.1
2023-04-16T20:08:24.711Z,52.2
2023-04-16T20:10:30.096Z,68.4
2023-04-16T20:14:34.367Z,107.1
2023-04-16T20:15:37.060Z,65.4
2023-04-16T20:19:41.333Z,63.9
2023-04-16T20:21:43.497Z,50.6
2023-04-16T20:23:48.680Z,47.4
2023-04-16T20:25:50.844Z,42.6
2023-04-16T20:27:52.895Z,51
2023-04-16T20:29:55.008Z,47.9
2023-04-16T20:31:57.156Z,47.4
2023-04-16T20:33:59.167Z,43.5
2023-04-16T20:36:01.343Z,51.3
2023-04-16T20:40:08.728Z,41.1
2023-04-16T20:44:12.983Z,40.1
2023-04-16T20:48:17.203Z,45.8
2023-04-16T20:52:24.570Z,44.5
2023-04-16T20:54:26.718Z,49.2
2023-04-16T20:56:28.843Z,48.6
2023-04-16T20:58:30.999Z,42.3
2023-04-16T21:00:33.108Z,66.9
2023-04-16T21:02:35.409Z,52.9
2023-04-16T21:04:37.587Z,44.1
2023-04-16T21:06:42.758Z,43.7
2023-04-16T21:10:47.016Z,47.2
2023-04-16T21:11:49.685Z,54.2
2023-04-16T21:13:51.721Z,50.8
2023-04-16T21:15:53.890Z,57.1
2023-04-16T21:24:05.521Z,56
2023-04-16T21:26:07.644Z,45.9
2023-04-16T21:28:09.767Z,52.4
2023-04-16T21:30:11.893Z,49.9
2023-04-16T21:32:14.002Z,53.4
2023-04-16T21:34:19.391Z,58.2
2023-04-16T21:36:21.508Z,59.2
2023-04-16T21:38:23.606Z,56.2
2023-04-16T21:48:37.485Z,58.5
2023-04-16T21:58:48.046Z,48.8
2023-04-16T22:09:28.399Z,70.7
2023-04-16T22:13:32.783Z,69.7
2023-04-16T22:15:37.966Z,56.7
2023-04-16T22:17:40.043Z,51.9
2023-04-16T22:19:42.136Z,72.7
2023-04-16T22:21:44.254Z,59.2
2023-04-16T22:23:46.264Z,53.1
2023-04-16T22:25:48.376Z,59
2023-04-16T22:27:50.522Z,63.7
2023-04-16T22:29:55.906Z,59.8
2023-04-16T22:31:58.174Z,66.2
2023-04-16T22:34:02.091Z,53
2023-04-16T22:36:02.306Z,54.6
2023-04-16T22:38:04.354Z,54.9
2023-04-16T22:52:22.354Z,72
2023-04-16T22:58:31.917Z,72.9
2023-04-16T23:02:36.581Z,73
2023-04-16T23:03:38.905Z,68.7
2023-04-16T23:05:40.883Z,68.5
2023-04-16T23:07:42.976Z,75.2
2023-04-16T23:09:45.078Z,77.1
2023-04-16T23:11:50.455Z,73.3
2023-04-16T23:13:52.630Z,84.4
2023-04-16T23:15:54.787Z,65.9
2023-04-16T23:17:56.845Z,69.6
2023-04-16T23:19:58.913Z,79.2
2023-04-16T23:22:01.001Z,60.7
2023-04-16T23:24:03.129Z,79.7
2023-04-16T23:26:08.445Z,63.3
2023-04-16T23:28:11.242Z,62.4
2023-04-16T23:30:12.630Z,65.2
2023-04-16T23:36:18.943Z,54.7
2023-04-16T23:38:21.059Z,64.9
2023-04-16T23:40:26.398Z,63.7
2023-04-16T23:42:28.498Z,65.8
2023-04-16T23:44:30.581Z,64.1
2023-04-16T23:46:32.744Z,70.6
2023-04-16T23:48:34.793Z,65
2023-04-16T23:50:36.905Z,70.6
2023-04-16T23:52:39.004Z,66.2
2023-04-16T23:54:44.296Z,70.1
2023-04-16T23:56:46.402Z,70.6
2023-04-16T23:58:48.515Z,62.5
2023-04-16T23:59:51.200Z,68.1
